createdAt,value
2019-02-16T00:00:13.413Z,0.00
2019-02-16T00:01:13.654Z,0.00
2019-02-16T00:03:17.831Z,0.00
2019-02-16T00:04:18.064Z,0.00
2019-02-16T00:06:23.227Z,0.00
2019-02-16T00:07:23.463Z,0.00
2019-02-16T00:09:27.631Z,0.00
2019-02-16T00:10:27.891Z,0.00
2019-02-16T00:12:32.019Z,0.00
2019-02-16T00:13:32.258Z,0.00
2019-02-16T00:15:36.426Z,0.00
2019-02-16T00:16:36.658Z,0.00
2019-02-16T00:18:40.821Z,0.00
2019-02-16T00:19:41.055Z,0.00
2019-02-16T00:21:45.206Z,0.00
2019-02-16T00:22:45.446Z,0.00
2019-02-16T00:24:49.609Z,0.00
2019-02-16T00:25:49.844Z,0.00
2019-02-16T00:27:42.921Z,0.00
2019-02-16T00:28:43.158Z,0.00
2019-02-16T00:30:47.334Z,0.00
2019-02-16T00:31:47.569Z,0.00
2019-02-16T00:33:51.735Z,0.00
2019-02-16T00:34:51.976Z,0.00
2019-02-16T00:36:56.127Z,0.00
2019-02-16T00:37:56.352Z,0.00
2019-02-16T00:40:00.530Z,0.00
2019-02-16T00:41:00.768Z,0.00
2019-02-16T00:43:04.919Z,0.00
2019-02-16T00:44:05.153Z,0.00
2019-02-16T00:46:09.324Z,0.00
2019-02-16T00:47:09.560Z,0.00
2019-02-16T00:49:13.736Z,0.00
2019-02-16T00:50:13.960Z,0.00
2019-02-16T00:52:18.103Z,0.00
2019-02-16T00:53:18.349Z,0.00
2019-02-16T00:55:22.521Z,0.00
2019-02-16T00:56:22.759Z,0.00
2019-02-16T00:58:26.908Z,0.00
2019-02-16T00:59:28.028Z,0.00
2019-02-16T01:01:31.314Z,0.00
2019-02-16T01:02:31.548Z,0.00
2019-02-16T01:04:35.736Z,0.00
2019-02-16T01:05:35.965Z,0.00
2019-02-16T01:07:29.047Z,0.00
2019-02-16T01:08:29.278Z,0.00
2019-02-16T01:10:33.439Z,0.00
2019-02-16T01:11:33.669Z,0.00
2019-02-16T01:13:37.820Z,0.00
2019-02-16T01:14:38.048Z,0.00
2019-02-16T01:16:42.227Z,0.00
2019-02-16T01:17:42.455Z,0.00
2019-02-16T01:19:46.618Z,0.00
2019-02-16T01:20:46.853Z,0.00
2019-02-16T01:22:52.041Z,0.00
2019-02-16T01:23:52.277Z,0.00
2019-02-16T01:25:56.439Z,0.00
2019-02-16T01:26:56.671Z,0.00
2019-02-16T01:29:00.819Z,0.00
2019-02-16T01:30:01.051Z,0.00
2019-02-16T01:32:05.222Z,0.00
2019-02-16T01:33:05.460Z,0.00
2019-02-16T01:35:09.625Z,0.00
2019-02-16T01:36:09.859Z,0.00
2019-02-16T01:38:14.004Z,0.00
2019-02-16T01:39:14.240Z,0.00
2019-02-16T01:41:18.406Z,0.00
2019-02-16T01:42:18.647Z,0.00
2019-02-16T01:44:22.789Z,0.00
2019-02-16T01:45:23.018Z,0.00
2019-02-16T01:47:27.384Z,0.00
2019-02-16T01:48:27.616Z,0.00
2019-02-16T01:50:31.796Z,0.00
2019-02-16T01:51:32.357Z,0.00
2019-02-16T01:53:36.180Z,0.00
2019-02-16T01:54:36.413Z,0.00
2019-02-16T01:56:40.583Z,0.00
2019-02-16T01:57:40.821Z,0.00
2019-02-16T01:59:44.959Z,0.00
2019-02-16T02:00:45.193Z,0.00
2019-02-16T02:02:49.360Z,0.00
2019-02-16T02:03:49.600Z,0.00
2019-02-16T02:05:53.767Z,0.00
2019-02-16T02:06:54.010Z,0.00
2019-02-16T02:08:58.147Z,0.00
2019-02-16T02:09:58.383Z,0.00
2019-02-16T02:12:02.548Z,0.00
2019-02-16T02:13:02.783Z,0.00
2019-02-16T02:15:06.932Z,0.00
2019-02-16T02:16:07.165Z,0.00
2019-02-16T02:18:11.332Z,0.00
2019-02-16T02:19:11.564Z,0.00
2019-02-16T02:21:15.731Z,0.00
2019-02-16T02:22:15.964Z,0.00
2019-02-16T02:24:20.114Z,0.00
2019-02-16T02:25:20.346Z,0.00
2019-02-16T02:27:13.442Z,0.00
2019-02-16T02:28:13.677Z,0.00
2019-02-16T02:30:17.829Z,0.00
2019-02-16T02:31:18.065Z,0.00
2019-02-16T02:33:22.224Z,0.00
2019-02-16T02:34:22.454Z,0.00
2019-02-16T02:36:26.637Z,0.00
2019-02-16T02:37:26.874Z,0.00
2019-02-16T02:39:31.028Z,0.00
2019-02-16T02:40:31.250Z,0.00
2019-02-16T02:42:35.419Z,0.00
2019-02-16T02:43:35.649Z,0.00
2019-02-16T02:45:39.802Z,0.00
2019-02-16T02:46:40.025Z,0.00
2019-02-16T02:48:44.199Z,0.00
2019-02-16T02:49:44.434Z,0.00
2019-02-16T02:51:52.326Z,0.00
2019-02-16T02:52:48.825Z,0.00
2019-02-16T02:54:52.972Z,0.00
2019-02-16T02:55:53.207Z,0.00
2019-02-16T02:57:46.300Z,0.00
2019-02-16T02:58:46.533Z,0.00
2019-02-16T03:00:39.613Z,0.00
2019-02-16T03:01:39.850Z,0.00
2019-02-16T03:03:44.014Z,0.00
2019-02-16T03:04:44.247Z,0.00
2019-02-16T03:06:48.391Z,0.00
2019-02-16T03:07:48.621Z,0.00
2019-02-16T03:09:52.794Z,0.00
2019-02-16T03:10:53.042Z,0.00
2019-02-16T03:12:57.206Z,0.00
2019-02-16T03:13:57.427Z,0.00
2019-02-16T03:16:01.575Z,0.00
2019-02-16T03:17:01.809Z,0.00
2019-02-16T03:19:05.987Z,0.00
2019-02-16T03:20:06.207Z,0.00
2019-02-16T03:22:10.346Z,0.00
2019-02-16T03:23:10.631Z,0.00
2019-02-16T03:25:14.761Z,0.00
2019-02-16T03:26:14.998Z,0.00
2019-02-16T03:28:19.177Z,0.00
2019-02-16T03:29:19.411Z,0.00
2019-02-16T03:31:23.562Z,0.00
2019-02-16T03:32:23.801Z,0.00
2019-02-16T03:34:27.971Z,0.00
2019-02-16T03:35:28.205Z,0.00
2019-02-16T03:37:21.287Z,0.00
2019-02-16T03:38:21.522Z,0.00
2019-02-16T03:40:25.701Z,0.00
2019-02-16T03:41:25.927Z,0.00
2019-02-16T03:43:30.095Z,0.00
2019-02-16T03:44:30.334Z,0.00
2019-02-16T03:46:34.493Z,0.00
2019-02-16T03:47:34.737Z,0.00
2019-02-16T03:49:38.897Z,0.00
2019-02-16T03:50:39.134Z,0.00
2019-02-16T03:52:43.289Z,0.00
2019-02-16T03:53:43.523Z,0.00
2019-02-16T03:55:47.698Z,0.00
2019-02-16T03:56:47.937Z,0.00
2019-02-16T03:58:52.109Z,0.00
2019-02-16T03:59:52.343Z,0.00
2019-02-16T04:01:56.496Z,0.00
2019-02-16T04:02:56.744Z,0.00
2019-02-16T04:05:00.890Z,0.00
2019-02-16T04:06:01.132Z,0.00
2019-02-16T04:07:54.196Z,0.00
2019-02-16T04:08:54.427Z,0.00
2019-02-16T04:10:58.596Z,0.00
2019-02-16T04:11:58.831Z,0.00
2019-02-16T04:14:02.976Z,0.00
2019-02-16T04:15:03.204Z,0.00
2019-02-16T04:17:07.367Z,0.00
2019-02-16T04:18:07.599Z,0.00
2019-02-16T04:20:11.767Z,0.00
2019-02-16T04:21:12.002Z,0.00
2019-02-16T04:23:16.154Z,0.00
2019-02-16T04:24:16.381Z,0.00
2019-02-16T04:26:21.561Z,0.00
2019-02-16T04:27:21.792Z,0.00
2019-02-16T04:29:26.977Z,0.00
2019-02-16T04:30:27.208Z,0.00
2019-02-16T04:32:31.361Z,0.00
2019-02-16T04:33:31.593Z,0.00
2019-02-16T04:35:35.757Z,0.00
2019-02-16T04:36:35.991Z,0.00
2019-02-16T04:38:40.138Z,0.00
2019-02-16T04:39:40.371Z,0.00
2019-02-16T04:41:44.535Z,0.00
2019-02-16T04:42:44.769Z,0.00
2019-02-16T04:44:48.939Z,0.00
2019-02-16T04:45:49.170Z,0.00
2019-02-16T04:47:42.246Z,0.00
2019-02-16T04:48:42.481Z,0.00
2019-02-16T04:50:46.646Z,0.00
2019-02-16T04:51:46.880Z,0.00
2019-02-16T04:53:51.043Z,0.00
2019-02-16T04:54:51.261Z,0.00
2019-02-16T04:56:55.436Z,0.00
2019-02-16T04:57:55.669Z,0.00
2019-02-16T04:59:59.839Z,0.00
2019-02-16T05:01:00.081Z,0.00
2019-02-16T05:03:04.215Z,0.00
2019-02-16T05:04:04.448Z,0.00
2019-02-16T05:06:08.613Z,0.00
2019-02-16T05:07:08.843Z,0.00
2019-02-16T05:09:12.989Z,0.00
2019-02-16T05:10:13.224Z,0.00
2019-02-16T05:12:17.395Z,0.00
2019-02-16T05:13:17.621Z,0.00
2019-02-16T05:15:21.788Z,0.00
2019-02-16T05:16:22.021Z,0.00
2019-02-16T05:18:26.164Z,0.00
2019-02-16T05:19:26.397Z,0.00
2019-02-16T05:21:30.564Z,0.00
2019-02-16T05:22:30.796Z,0.00
2019-02-16T05:24:34.943Z,0.00
2019-02-16T05:25:35.172Z,0.00
2019-02-16T05:27:28.273Z,0.00
2019-02-16T05:28:28.521Z,0.00
2019-02-16T05:30:32.685Z,0.00
2019-02-16T05:31:32.976Z,0.00
2019-02-16T05:33:37.092Z,0.00
2019-02-16T05:34:37.330Z,0.00
2019-02-16T05:36:41.496Z,0.00
2019-02-16T05:37:41.728Z,0.00
2019-02-16T05:39:45.877Z,0.00
2019-02-16T05:40:46.118Z,0.00
2019-02-16T05:42:50.288Z,0.00
2019-02-16T05:43:50.522Z,0.00
2019-02-16T05:45:54.698Z,0.00
2019-02-16T05:46:54.944Z,0.00
2019-02-16T05:48:59.085Z,0.00
2019-02-16T05:49:59.318Z,0.00
2019-02-16T05:52:03.495Z,0.00
2019-02-16T05:53:03.730Z,0.00
2019-02-16T05:55:07.887Z,4.00
2019-02-16T05:56:08.124Z,0.00
2019-02-16T05:58:12.312Z,4.00
2019-02-16T05:59:12.540Z,4.00
2019-02-16T06:01:16.720Z,4.00
2019-02-16T06:02:16.941Z,4.00
2019-02-16T06:04:21.088Z,12.00
2019-02-16T06:05:21.333Z,8.00
2019-02-16T06:07:14.426Z,16.00
2019-02-16T06:08:14.675Z,16.00
2019-02-16T06:10:18.811Z,28.00
2019-02-16T06:11:19.047Z,32.00
2019-02-16T06:13:23.230Z,44.00
2019-02-16T06:14:23.465Z,52.00
2019-02-16T06:16:27.642Z,72.00
2019-02-16T06:17:27.869Z,84.00
2019-02-16T06:19:33.030Z,116.00
2019-02-16T06:20:33.257Z,136.00
2019-02-16T06:22:37.421Z,180.00
2019-02-16T06:23:37.651Z,208.00
2019-02-16T06:25:41.796Z,268.00
2019-02-16T06:26:42.022Z,300.00
2019-02-16T06:28:46.195Z,384.00
2019-02-16T06:29:46.428Z,424.00
2019-02-16T06:31:50.591Z,524.00
2019-02-16T06:32:50.824Z,580.00
2019-02-16T06:34:55.981Z,696.00
2019-02-16T06:35:56.214Z,760.00
2019-02-16T06:37:50.325Z,876.00
2019-02-16T06:38:50.559Z,948.00
2019-02-16T06:40:54.702Z,1108.00
2019-02-16T06:41:54.932Z,1188.00
2019-02-16T06:43:59.097Z,1368.00
2019-02-16T06:44:59.338Z,1488.00
2019-02-16T06:47:03.488Z,1916.00
2019-02-16T06:48:03.725Z,2200.00
2019-02-16T06:50:07.892Z,3924.00
2019-02-16T06:51:08.124Z,4824.00
2019-02-16T06:53:13.559Z,5364.00
2019-02-16T06:54:12.529Z,6160.00
2019-02-16T06:56:16.673Z,7496.00
2019-02-16T06:57:16.910Z,7644.00
2019-02-16T06:59:21.085Z,9412.00
2019-02-16T07:00:21.313Z,9692.00
2019-02-16T07:02:25.461Z,9960.00
2019-02-16T07:03:25.700Z,10900.00
2019-02-16T07:05:29.872Z,12832.00
2019-02-16T07:06:30.138Z,13056.00
2019-02-16T07:08:34.272Z,15488.00
2019-02-16T07:09:34.506Z,15936.00
2019-02-16T07:11:38.650Z,17088.00
2019-02-16T07:12:38.881Z,18048.00
2019-02-16T07:14:43.041Z,18912.00
2019-02-16T07:15:43.275Z,19680.00
2019-02-16T07:17:36.366Z,21472.00
2019-02-16T07:18:36.578Z,21920.00
2019-02-16T07:20:40.751Z,23424.00
2019-02-16T07:21:40.980Z,24416.00
2019-02-16T07:23:45.158Z,25504.00
2019-02-16T07:24:45.466Z,25568.00
2019-02-16T07:26:49.623Z,27808.00
2019-02-16T07:27:49.853Z,29248.00
2019-02-16T07:29:54.024Z,28640.00
2019-02-16T07:30:54.262Z,29248.00
2019-02-16T07:32:58.418Z,30432.00
2019-02-16T07:33:58.661Z,31488.00
2019-02-16T07:36:02.835Z,33568.00
2019-02-16T07:37:03.071Z,32096.00
2019-02-16T07:39:07.249Z,34144.00
2019-02-16T07:40:07.491Z,35872.00
2019-02-16T07:42:11.642Z,38272.00
2019-02-16T07:43:11.881Z,39008.00
2019-02-16T07:45:16.052Z,40032.00
2019-02-16T07:46:16.354Z,43200.00
2019-02-16T07:48:20.499Z,43648.00
2019-02-16T07:49:20.737Z,46272.00
2019-02-16T07:51:24.908Z,44000.00
2019-02-16T07:52:25.147Z,46400.00
2019-02-16T07:54:29.322Z,45120.00
2019-02-16T07:55:29.562Z,44992.00
2019-02-16T07:57:22.644Z,48544.00
2019-02-16T07:58:22.884Z,51552.00
2019-02-16T08:00:27.059Z,43904.00
2019-02-16T08:01:27.299Z,47616.00
2019-02-16T08:03:31.516Z,38496.00
2019-02-16T08:04:31.763Z,47744.00
2019-02-16T08:06:35.942Z,43808.00
2019-02-16T08:07:36.183Z,56352.00
2019-02-16T08:09:40.364Z,52128.00
2019-02-16T08:10:40.607Z,56032.00
2019-02-16T08:12:44.774Z,55328.00
2019-02-16T08:13:45.016Z,53280.00
2019-02-16T08:15:49.200Z,55936.00
2019-02-16T08:16:49.444Z,54368.00
2019-02-16T08:18:53.607Z,65120.00
2019-02-16T08:19:53.853Z,57888.00
2019-02-16T08:21:58.043Z,70944.00
2019-02-16T08:22:58.292Z,65504.00
2019-02-16T08:25:02.483Z,65504.00
2019-02-16T08:26:02.739Z,69888.00
2019-02-16T08:27:55.825Z,67680.00
2019-02-16T08:28:56.074Z,66752.00
2019-02-16T08:31:00.264Z,72960.00
2019-02-16T08:32:00.518Z,70144.00
2019-02-16T08:34:04.689Z,70784.00
2019-02-16T08:35:04.935Z,72288.00
2019-02-16T08:37:09.130Z,74080.00
2019-02-16T08:38:09.376Z,78144.00
2019-02-16T08:40:13.568Z,74528.00
2019-02-16T08:41:13.818Z,76320.00
2019-02-16T08:43:17.988Z,77152.00
2019-02-16T08:44:18.238Z,75776.00
2019-02-16T08:46:22.431Z,82272.00
2019-02-16T08:47:22.680Z,83104.00
2019-02-16T08:49:26.850Z,75744.00
2019-02-16T08:50:27.103Z,79296.00
2019-02-16T08:52:31.293Z,87392.00
2019-02-16T08:53:31.545Z,85408.00
2019-02-16T08:55:35.744Z,82432.00
2019-02-16T08:56:35.991Z,83584.00
2019-02-16T08:58:40.166Z,87136.00
2019-02-16T08:59:40.417Z,85760.00
2019-02-16T09:01:44.619Z,88128.00
2019-02-16T09:02:44.870Z,88128.00
2019-02-16T09:04:49.053Z,85696.00
2019-02-16T09:05:49.297Z,89824.00
2019-02-16T09:07:42.421Z,82528.00
2019-02-16T09:08:42.671Z,85536.00
2019-02-16T09:10:46.868Z,98720.00
2019-02-16T09:11:47.121Z,93600.00
2019-02-16T09:13:51.288Z,89312.00
2019-02-16T09:14:51.539Z,91712.00
2019-02-16T09:16:56.742Z,97760.00
2019-02-16T09:17:56.995Z,97280.00
2019-02-16T09:20:02.177Z,87936.00
2019-02-16T09:21:02.427Z,91392.00
2019-02-16T09:23:06.617Z,90848.00
2019-02-16T09:24:06.869Z,88448.00
2019-02-16T09:26:11.035Z,96000.00
2019-02-16T09:27:11.286Z,95968.00
2019-02-16T09:29:15.479Z,93600.00
2019-02-16T09:30:15.729Z,94432.00
2019-02-16T09:32:19.928Z,103744.00
2019-02-16T09:33:20.176Z,104064.00
2019-02-16T09:35:24.348Z,100320.00
2019-02-16T09:36:24.598Z,102368.00
2019-02-16T09:38:28.796Z,100768.00
2019-02-16T09:39:29.046Z,100256.00
2019-02-16T09:41:33.232Z,106240.00
2019-02-16T09:42:33.479Z,106144.00
2019-02-16T09:44:37.677Z,94560.00
2019-02-16T09:45:37.926Z,91296.00
2019-02-16T09:47:31.050Z,109728.00
2019-02-16T09:48:31.298Z,111008.00
2019-02-16T09:50:35.471Z,94848.00
2019-02-16T09:51:35.721Z,97120.00
2019-02-16T09:53:39.917Z,107616.00
2019-02-16T09:54:40.171Z,105536.00
2019-02-16T09:56:44.343Z,104896.00
2019-02-16T09:57:44.597Z,104704.00
2019-02-16T09:59:48.795Z,108288.00
2019-02-16T10:00:49.050Z,110752.00
2019-02-16T10:02:53.252Z,107904.00
2019-02-16T10:03:53.506Z,106624.00
2019-02-16T10:05:57.689Z,110240.00
2019-02-16T10:06:57.938Z,110400.00
2019-02-16T10:09:02.140Z,113504.00
2019-02-16T10:10:02.393Z,114528.00
2019-02-16T10:12:06.572Z,115744.00
2019-02-16T10:13:06.828Z,115104.00
2019-02-16T10:15:11.033Z,114688.00
2019-02-16T10:16:11.288Z,114464.00
2019-02-16T10:18:15.492Z,110048.00
2019-02-16T10:19:15.750Z,110816.00
2019-02-16T10:21:19.928Z,117856.00
2019-02-16T10:22:20.184Z,114208.00
2019-02-16T10:24:24.385Z,116256.00
2019-02-16T10:25:24.638Z,119008.00
2019-02-16T10:27:17.749Z,122880.00
2019-02-16T10:28:18.004Z,124672.00
2019-02-16T10:30:22.207Z,125920.00
2019-02-16T10:31:22.460Z,125504.00
2019-02-16T10:33:26.665Z,122208.00
2019-02-16T10:34:26.918Z,121376.00
2019-02-16T10:36:31.102Z,122784.00
2019-02-16T10:37:31.358Z,125440.00
2019-02-16T10:39:35.556Z,126208.00
2019-02-16T10:40:35.812Z,126752.00
2019-02-16T10:42:39.995Z,126688.00
2019-02-16T10:43:40.252Z,125728.00
2019-02-16T10:45:44.454Z,126560.00
2019-02-16T10:46:44.709Z,129408.00
2019-02-16T10:48:48.914Z,129792.00
2019-02-16T10:49:49.170Z,127584.00
2019-02-16T10:51:53.348Z,125088.00
2019-02-16T10:52:53.615Z,123808.00
2019-02-16T10:54:57.805Z,125728.00
2019-02-16T10:55:58.060Z,128192.00
2019-02-16T10:57:51.169Z,129312.00
2019-02-16T10:58:51.431Z,127744.00
2019-02-16T11:00:55.623Z,129536.00
2019-02-16T11:01:55.875Z,131520.00
2019-02-16T11:04:00.082Z,128480.00
2019-02-16T11:05:00.335Z,129216.00
2019-02-16T11:07:04.514Z,131648.00
2019-02-16T11:08:04.772Z,129408.00
2019-02-16T11:10:08.979Z,123424.00
2019-02-16T11:11:09.235Z,125376.00
2019-02-16T11:13:13.410Z,126272.00
2019-02-16T11:14:13.668Z,125376.00
2019-02-16T11:16:17.870Z,124064.00
2019-02-16T11:17:18.127Z,121472.00
2019-02-16T11:19:22.333Z,122848.00
2019-02-16T11:20:22.588Z,128320.00
2019-02-16T11:22:26.771Z,128992.00
2019-02-16T11:23:27.026Z,121344.00
2019-02-16T11:25:31.230Z,117568.00
2019-02-16T11:26:31.486Z,121376.00
2019-02-16T11:28:35.673Z,121984.00
2019-02-16T11:29:35.931Z,117824.00
2019-02-16T11:31:40.138Z,121120.00
2019-02-16T11:32:40.399Z,122784.00
2019-02-16T11:34:44.606Z,118336.00
2019-02-16T11:35:44.866Z,116736.00
2019-02-16T11:37:37.977Z,120448.00
2019-02-16T11:38:38.239Z,121760.00
2019-02-16T11:40:42.444Z,115264.00
2019-02-16T11:41:42.703Z,114144.00
2019-02-16T11:43:46.887Z,121152.00
2019-02-16T11:44:47.190Z,119200.00
2019-02-16T11:46:51.482Z,109600.00
2019-02-16T11:47:51.737Z,113440.00
2019-02-16T11:49:55.954Z,129568.00
2019-02-16T11:50:56.253Z,127936.00
2019-02-16T11:53:00.443Z,127168.00
2019-02-16T11:54:00.700Z,120736.00
2019-02-16T11:56:04.986Z,124512.00
2019-02-16T11:57:05.240Z,128224.00
2019-02-16T11:59:09.430Z,119168.00
2019-02-16T12:00:09.683Z,115104.00
2019-02-16T12:02:13.894Z,116032.00
2019-02-16T12:03:14.152Z,116992.00
2019-02-16T12:05:18.358Z,114208.00
2019-02-16T12:06:18.667Z,117536.00
2019-02-16T12:08:22.876Z,120416.00
2019-02-16T12:09:23.123Z,117984.00
2019-02-16T12:11:27.386Z,114976.00
2019-02-16T12:12:27.713Z,118720.00
2019-02-16T12:14:31.900Z,113728.00
2019-02-16T12:15:32.157Z,111168.00
2019-02-16T12:17:25.292Z,109952.00
2019-02-16T12:18:25.548Z,109920.00
2019-02-16T12:20:33.703Z,102144.00
2019-02-16T12:21:30.011Z,103328.00
2019-02-16T12:23:34.197Z,114368.00
2019-02-16T12:24:34.455Z,114048.00
2019-02-16T12:26:38.667Z,114336.00
2019-02-16T12:27:38.924Z,115232.00
2019-02-16T12:29:43.107Z,109792.00
2019-02-16T12:30:43.364Z,115232.00
2019-02-16T12:32:47.571Z,122464.00
2019-02-16T12:33:47.828Z,115968.00
2019-02-16T12:35:52.034Z,122624.00
2019-02-16T12:36:52.290Z,127136.00
2019-02-16T12:39:04.550Z,122368.00
2019-02-16T12:39:57.756Z,126976.00
2019-02-16T12:42:01.954Z,132032.00
2019-02-16T12:43:02.214Z,123808.00
2019-02-16T12:45:06.397Z,112000.00
2019-02-16T12:46:06.651Z,111488.00
2019-02-16T12:48:10.857Z,110848.00
2019-02-16T12:49:11.110Z,112384.00
2019-02-16T12:51:15.316Z,114912.00
2019-02-16T12:52:15.571Z,114272.00
2019-02-16T12:54:19.757Z,101280.00
2019-02-16T12:55:20.015Z,99584.00
2019-02-16T12:57:13.149Z,107040.00
2019-02-16T12:58:13.406Z,103104.00
2019-02-16T13:00:17.589Z,101824.00
2019-02-16T13:01:17.843Z,110528.00
2019-02-16T13:03:22.049Z,110368.00
2019-02-16T13:04:22.303Z,104160.00
2019-02-16T13:06:26.489Z,107712.00
2019-02-16T13:07:26.750Z,110176.00
2019-02-16T13:09:30.957Z,110144.00
2019-02-16T13:10:31.220Z,113152.00
2019-02-16T13:12:35.453Z,115776.00
2019-02-16T13:13:35.788Z,119616.00
2019-02-16T13:15:39.978Z,115456.00
2019-02-16T13:16:40.238Z,113344.00
2019-02-16T13:18:44.451Z,117760.00
2019-02-16T13:19:44.703Z,115712.00
2019-02-16T13:21:48.886Z,115456.00
2019-02-16T13:22:49.221Z,115264.00
2019-02-16T13:24:53.437Z,109504.00
2019-02-16T13:25:53.691Z,109504.00
2019-02-16T13:27:46.826Z,106528.00
2019-02-16T13:28:47.086Z,106048.00
2019-02-16T13:30:51.292Z,113792.00
2019-02-16T13:31:51.601Z,108320.00
2019-02-16T13:33:55.907Z,94112.00
2019-02-16T13:34:56.217Z,99808.00
2019-02-16T13:37:00.423Z,103584.00
2019-02-16T13:38:00.678Z,97184.00
2019-02-16T13:40:04.929Z,97504.00
2019-02-16T13:41:05.215Z,97184.00
2019-02-16T13:43:09.480Z,92864.00
2019-02-16T13:44:09.782Z,92256.00
2019-02-16T13:46:13.984Z,93056.00
2019-02-16T13:47:14.247Z,90592.00
2019-02-16T13:49:18.440Z,99840.00
2019-02-16T13:50:20.246Z,100288.00
2019-02-16T13:52:22.914Z,92896.00
2019-02-16T13:53:23.208Z,96832.00
2019-02-16T13:55:33.285Z,99584.00
2019-02-16T13:56:27.714Z,92928.00
2019-02-16T13:58:31.921Z,81472.00
2019-02-16T13:59:32.176Z,90272.00
2019-02-16T14:01:36.373Z,82336.00
2019-02-16T14:02:36.627Z,76896.00
2019-02-16T14:04:40.829Z,85280.00
2019-02-16T14:05:41.088Z,85792.00
2019-02-16T14:07:34.215Z,74144.00
2019-02-16T14:08:34.506Z,76384.00
2019-02-16T14:10:38.710Z,83040.00
2019-02-16T14:11:39.002Z,86816.00
2019-02-16T14:13:43.218Z,82272.00
2019-02-16T14:14:43.585Z,86080.00
2019-02-16T14:16:47.768Z,90432.00
2019-02-16T14:17:48.094Z,81664.00
2019-02-16T14:19:52.424Z,88640.00
2019-02-16T14:20:52.704Z,86112.00
2019-02-16T14:22:56.890Z,85216.00
2019-02-16T14:23:57.175Z,90400.00
2019-02-16T14:26:01.378Z,78144.00
2019-02-16T14:27:01.633Z,82496.00
2019-02-16T14:29:05.897Z,82336.00
2019-02-16T14:30:06.193Z,81568.00
2019-02-16T14:32:10.373Z,72032.00
2019-02-16T14:33:10.625Z,70784.00
2019-02-16T14:35:14.825Z,79008.00
2019-02-16T14:36:15.078Z,75840.00
2019-02-16T14:38:19.764Z,80832.00
2019-02-16T14:39:19.513Z,76096.00
2019-02-16T14:41:23.713Z,70208.00
2019-02-16T14:42:23.968Z,73568.00
2019-02-16T14:44:28.208Z,80896.00
2019-02-16T14:45:28.430Z,72384.00
2019-02-16T14:47:21.540Z,68672.00
2019-02-16T14:48:21.790Z,75328.00
2019-02-16T14:50:25.991Z,69376.00
2019-02-16T14:51:26.246Z,66816.00
2019-02-16T14:53:30.426Z,66688.00
2019-02-16T14:54:30.680Z,69408.00
2019-02-16T14:56:34.874Z,59520.00
2019-02-16T14:57:35.128Z,60768.00
2019-02-16T14:59:39.330Z,63776.00
2019-02-16T15:00:39.582Z,60288.00
2019-02-16T15:02:43.764Z,59552.00
2019-02-16T15:03:44.013Z,59392.00
2019-02-16T15:05:48.215Z,56128.00
2019-02-16T15:06:48.464Z,56256.00
2019-02-16T15:08:52.644Z,56576.00
2019-02-16T15:09:52.895Z,55136.00
2019-02-16T15:11:57.098Z,56448.00
2019-02-16T15:12:57.352Z,55264.00
2019-02-16T15:15:01.564Z,52512.00
2019-02-16T15:16:01.812Z,51264.00
2019-02-16T15:17:55.952Z,52960.00
2019-02-16T15:18:56.203Z,53664.00
2019-02-16T15:21:00.403Z,47392.00
2019-02-16T15:22:00.657Z,47232.00
2019-02-16T15:24:04.833Z,42976.00
2019-02-16T15:25:05.090Z,42496.00
2019-02-16T15:27:09.285Z,41536.00
2019-02-16T15:28:09.538Z,39040.00
2019-02-16T15:30:14.507Z,40800.00
2019-02-16T15:31:13.990Z,40576.00
2019-02-16T15:33:18.167Z,34304.00
2019-02-16T15:34:18.423Z,34304.00
2019-02-16T15:36:24.223Z,35232.00
2019-02-16T15:37:22.865Z,36096.00
2019-02-16T15:39:27.046Z,30720.00
2019-02-16T15:40:27.299Z,30176.00
2019-02-16T15:42:31.498Z,31552.00
2019-02-16T15:43:31.745Z,31872.00
2019-02-16T15:45:35.932Z,27328.00
2019-02-16T15:46:36.184Z,24800.00
2019-02-16T15:48:40.353Z,23968.00
2019-02-16T15:49:41.154Z,22848.00
2019-02-16T15:51:44.797Z,22080.00
2019-02-16T15:52:45.049Z,20224.00
2019-02-16T15:54:49.222Z,19488.00
2019-02-16T15:55:49.470Z,17472.00
2019-02-16T15:57:42.593Z,18368.00
2019-02-16T15:58:42.843Z,17568.00
2019-02-16T16:00:47.066Z,15680.00
2019-02-16T16:01:48.667Z,14752.00
2019-02-16T16:03:51.453Z,9636.00
2019-02-16T16:04:51.699Z,6528.00
2019-02-16T16:06:55.890Z,4448.00
2019-02-16T16:07:56.133Z,4160.00
2019-02-16T16:10:00.408Z,3740.00
2019-02-16T16:11:00.552Z,3544.00
2019-02-16T16:13:04.734Z,3116.00
2019-02-16T16:14:06.522Z,2928.00
2019-02-16T16:16:09.166Z,2664.00
2019-02-16T16:17:09.411Z,2556.00
2019-02-16T16:19:13.577Z,2312.00
2019-02-16T16:20:13.820Z,2188.00
2019-02-16T16:22:18.004Z,1880.00
2019-02-16T16:23:18.246Z,1732.00
2019-02-16T16:25:22.413Z,1476.00
2019-02-16T16:26:22.656Z,1384.00
2019-02-16T16:28:26.844Z,1176.00
2019-02-16T16:29:27.090Z,1084.00
2019-02-16T16:31:31.264Z,932.00
2019-02-16T16:32:31.509Z,860.00
2019-02-16T16:34:35.662Z,724.00
2019-02-16T16:35:35.909Z,664.00
2019-02-16T16:37:29.015Z,556.00
2019-02-16T16:38:29.258Z,504.00
2019-02-16T16:40:33.416Z,408.00
2019-02-16T16:41:33.661Z,368.00
2019-02-16T16:43:37.853Z,292.00
2019-02-16T16:44:38.093Z,260.00
2019-02-16T16:46:42.285Z,204.00
2019-02-16T16:47:42.525Z,180.00
2019-02-16T16:49:46.685Z,140.00
2019-02-16T16:50:46.929Z,124.00
2019-02-16T16:52:51.123Z,88.00
2019-02-16T16:53:51.444Z,76.00
2019-02-16T16:55:55.529Z,56.00
2019-02-16T16:56:55.770Z,48.00
2019-02-16T16:58:59.953Z,32.00
2019-02-16T17:00:00.342Z,24.00
2019-02-16T17:02:04.370Z,20.00
2019-02-16T17:03:04.610Z,16.00
2019-02-16T17:05:08.764Z,12.00
2019-02-16T17:06:09.005Z,12.00
2019-02-16T17:08:13.189Z,8.00
2019-02-16T17:09:13.431Z,4.00
2019-02-16T17:11:17.587Z,4.00
2019-02-16T17:12:17.824Z,4.00
2019-02-16T17:14:22.002Z,4.00
2019-02-16T17:15:22.239Z,0.00
2019-02-16T17:17:15.322Z,4.00
2019-02-16T17:18:15.559Z,0.00
2019-02-16T17:20:19.735Z,0.00
2019-02-16T17:21:19.974Z,0.00
2019-02-16T17:23:24.152Z,0.00
2019-02-16T17:24:24.389Z,0.00
2019-02-16T17:26:37.298Z,0.00
2019-02-16T17:27:28.787Z,0.00
2019-02-16T17:29:33.032Z,0.00
2019-02-16T17:30:34.923Z,0.00
2019-02-16T17:32:37.489Z,0.00
2019-02-16T17:33:37.726Z,0.00
2019-02-16T17:35:42.030Z,0.00
2019-02-16T17:36:42.377Z,0.00
2019-02-16T17:38:46.534Z,0.00
2019-02-16T17:39:46.800Z,0.00
2019-02-16T17:41:51.520Z,0.00
2019-02-16T17:42:51.203Z,0.00
2019-02-16T17:44:55.372Z,0.00
2019-02-16T17:45:55.610Z,0.00
2019-02-16T17:47:48.700Z,0.00
2019-02-16T17:48:48.980Z,0.00
2019-02-16T17:50:53.169Z,0.00
2019-02-16T17:51:53.399Z,0.00
2019-02-16T17:53:57.639Z,0.00
2019-02-16T17:54:57.914Z,0.00
2019-02-16T17:57:02.104Z,0.00
2019-02-16T17:58:02.342Z,0.00
2019-02-16T18:00:06.521Z,0.00
2019-02-16T18:01:06.760Z,0.00
2019-02-16T18:03:10.910Z,0.00
2019-02-16T18:04:11.189Z,0.00
2019-02-16T18:06:15.365Z,0.00
2019-02-16T18:07:15.604Z,0.00
2019-02-16T18:09:19.775Z,0.00
2019-02-16T18:10:20.017Z,0.00
2019-02-16T18:12:24.165Z,0.00
2019-02-16T18:13:24.484Z,0.00
2019-02-16T18:15:28.653Z,0.00
2019-02-16T18:16:28.887Z,0.00
2019-02-16T18:18:33.154Z,0.00
2019-02-16T18:19:33.389Z,0.00
2019-02-16T18:21:37.562Z,0.00
2019-02-16T18:22:37.797Z,0.00
2019-02-16T18:24:42.023Z,0.00
2019-02-16T18:25:42.262Z,0.00
2019-02-16T18:27:35.387Z,0.00
2019-02-16T18:28:35.609Z,0.00
2019-02-16T18:30:39.794Z,0.00
2019-02-16T18:31:40.027Z,0.00
2019-02-16T18:33:44.257Z,0.00
2019-02-16T18:34:44.488Z,0.00
2019-02-16T18:36:48.676Z,0.00
2019-02-16T18:37:48.912Z,0.00
2019-02-16T18:39:53.083Z,0.00
2019-02-16T18:40:53.320Z,0.00
2019-02-16T18:42:57.496Z,0.00
2019-02-16T18:43:59.772Z,0.00
2019-02-16T18:46:01.904Z,0.00
2019-02-16T18:47:02.135Z,0.00
2019-02-16T18:49:06.300Z,0.00
2019-02-16T18:50:06.535Z,0.00
2019-02-16T18:52:10.796Z,0.00